createdAt,value
2023-05-10T00:00:05.875Z,54.33
2023-05-10T00:00:16.290Z,54.31
2023-05-10T00:00:26.185Z,54.33
2023-05-10T00:00:36.201Z,54.31
2023-05-10T00:00:46.203Z,54.33
2023-05-10T00:00:56.372Z,54.33
2023-05-10T00:01:06.471Z,54.33
2023-05-10T00:01:16.477Z,54.33
2023-05-10T00:01:26.493Z,54.24
2023-05-10T00:01:36.704Z,54.24
2023-05-10T00:01:46.685Z,54.31
2023-05-10T00:01:56.845Z,54.31
2023-05-10T00:02:07.069Z,54.33
2023-05-10T00:02:17.125Z,54.33
2023-05-10T00:02:27.307Z,54.33
2023-05-10T00:02:37.211Z,54.33
2023-05-10T00:02:47.287Z,54.33
2023-05-10T00:02:57.399Z,54.33
2023-05-10T00:03:07.529Z,54.33
2023-05-10T00:03:17.632Z,54.44
2023-05-10T00:03:27.674Z,54.44
2023-05-10T00:03:37.748Z,54.44
2023-05-10T00:03:47.783Z,54.44
2023-05-10T00:03:57.863Z,54.44
2023-05-10T00:04:07.994Z,54.33
2023-05-10T00:04:18.008Z,54.33
2023-05-10T00:04:27.987Z,54.33
2023-05-10T00:04:37.985Z,54.44
2023-05-10T00:04:48.147Z,54.44
2023-05-10T00:04:58.384Z,54.44
2023-05-10T00:05:08.419Z,54.33
2023-05-10T00:05:18.554Z,54.44
2023-05-10T00:05:28.514Z,54.44
2023-05-10T00:05:38.704Z,54.44
2023-05-10T00:05:48.698Z,54.44
2023-05-10T00:05:58.867Z,54.44
2023-05-10T00:06:08.870Z,54.44
2023-05-10T00:06:19.048Z,54.44
2023-05-10T00:06:29.120Z,54.44
2023-05-10T00:06:39.153Z,54.44
2023-05-10T00:06:49.141Z,54.44
2023-05-10T00:06:59.135Z,54.44
2023-05-10T00:07:09.290Z,54.44
2023-05-10T00:07:19.359Z,54.44
2023-05-10T00:07:29.513Z,54.44
2023-05-10T00:07:39.677Z,54.44
2023-05-10T00:07:49.852Z,54.44
2023-05-10T00:08:00.025Z,54.44
2023-05-10T00:08:10.207Z,54.44
2023-05-10T00:08:20.198Z,54.54
2023-05-10T00:08:30.213Z,54.54
2023-05-10T00:08:40.379Z,54.54
2023-05-10T00:08:50.386Z,54.54
2023-05-10T00:09:00.578Z,54.54
2023-05-10T00:09:10.727Z,54.54
2023-05-10T00:09:20.728Z,54.54
2023-05-10T00:09:30.784Z,54.54
2023-05-10T00:09:40.789Z,54.54
2023-05-10T00:09:50.927Z,54.54
2023-05-10T00:10:01.114Z,54.54
2023-05-10T00:10:11.129Z,54.54
2023-05-10T00:10:21.102Z,54.54
2023-05-10T00:10:31.259Z,54.64
2023-05-10T00:10:41.411Z,54.64
2023-05-10T00:10:51.468Z,54.64
2023-05-10T00:11:01.469Z,54.64
2023-05-10T00:11:11.455Z,54.64
2023-05-10T00:11:23.003Z,54.64
2023-05-10T00:11:31.774Z,54.54
2023-05-10T00:11:41.745Z,54.54
2023-05-10T00:11:51.754Z,54.54
2023-05-10T00:12:01.915Z,54.54
2023-05-10T00:12:12.084Z,54.54
2023-05-10T00:12:22.235Z,54.54
2023-05-10T00:12:32.249Z,54.54
2023-05-10T00:12:42.432Z,54.54
2023-05-10T00:12:52.457Z,54.54
2023-05-10T00:13:02.445Z,54.54
2023-05-10T00:13:12.487Z,54.54
2023-05-10T00:13:22.501Z,54.54
2023-05-10T00:13:32.535Z,54.54
2023-05-10T00:13:42.504Z,54.64
2023-05-10T00:13:52.494Z,54.54
2023-05-10T00:14:02.649Z,54.54
2023-05-10T00:14:12.653Z,54.54
2023-05-10T00:14:22.867Z,54.64
2023-05-10T00:14:32.828Z,54.54
2023-05-10T00:14:43.004Z,54.54
2023-05-10T00:14:53.016Z,54.54
2023-05-10T00:15:03.208Z,54.64
2023-05-10T00:15:13.190Z,54.64
2023-05-10T00:15:23.344Z,54.64
2023-05-10T00:15:33.507Z,54.64
2023-05-10T00:15:43.513Z,54.64
2023-05-10T00:15:53.680Z,54.64
2023-05-10T00:16:03.916Z,54.74
2023-05-10T00:16:13.959Z,54.74
2023-05-10T00:16:23.954Z,54.74
2023-05-10T00:16:33.996Z,54.74
2023-05-10T00:16:43.985Z,54.74
2023-05-10T00:16:54.080Z,54.74
2023-05-10T00:17:04.091Z,54.74
2023-05-10T00:17:14.097Z,54.74
2023-05-10T00:17:24.272Z,54.74
2023-05-10T00:17:34.435Z,54.74
2023-05-10T00:17:44.459Z,54.74
2023-05-10T00:17:54.470Z,54.74
2023-05-10T00:18:04.467Z,54.74
2023-05-10T00:18:14.427Z,54.74
2023-05-10T00:18:24.616Z,54.74
2023-05-10T00:18:34.612Z,54.74
2023-05-10T00:18:44.785Z,54.74
2023-05-10T00:18:54.980Z,54.74
2023-05-10T00:19:05.157Z,54.74
2023-05-10T00:19:15.160Z,54.74
2023-05-10T00:19:25.340Z,54.74
2023-05-10T00:19:35.344Z,54.74
2023-05-10T00:19:45.329Z,54.64
2023-05-10T00:19:55.492Z,54.54
2023-05-10T00:20:05.583Z,54.54
2023-05-10T00:20:15.839Z,54.54
2023-05-10T00:20:25.599Z,54.54
2023-05-10T00:20:35.759Z,54.54
2023-05-10T00:20:45.773Z,54.54
2023-05-10T00:20:55.923Z,54.54
2023-05-10T00:21:06.080Z,54.54
2023-05-10T00:21:16.242Z,54.64
2023-05-10T00:21:26.259Z,54.64
2023-05-10T00:21:36.248Z,54.64
2023-05-10T00:21:46.414Z,54.64
2023-05-10T00:21:56.572Z,54.64
2023-05-10T00:22:06.723Z,54.74
2023-05-10T00:22:16.740Z,54.74
2023-05-10T00:22:26.738Z,54.74
2023-05-10T00:22:36.915Z,54.84
2023-05-10T00:22:46.981Z,54.84
2023-05-10T00:22:57.168Z,54.84
2023-05-10T00:23:07.159Z,54.84
2023-05-10T00:23:17.323Z,54.94
2023-05-10T00:23:27.478Z,54.94
2023-05-10T00:23:37.661Z,54.94
2023-05-10T00:23:47.707Z,54.94
2023-05-10T00:23:57.887Z,55.05
2023-05-10T00:24:07.888Z,55.05
2023-05-10T00:24:18.061Z,55.05
2023-05-10T00:24:28.047Z,55.05
2023-05-10T00:24:38.205Z,55.05
2023-05-10T00:24:48.210Z,54.94
2023-05-10T00:24:58.252Z,54.94
2023-05-10T00:25:08.221Z,54.94
2023-05-10T00:25:18.379Z,54.94
2023-05-10T00:25:28.559Z,54.94
2023-05-10T00:25:38.708Z,54.94
2023-05-10T00:25:48.713Z,54.94
2023-05-10T00:25:58.759Z,54.94
2023-05-10T00:26:08.897Z,54.94
2023-05-10T00:26:19.076Z,54.94
2023-05-10T00:26:29.064Z,54.94
2023-05-10T00:26:39.200Z,54.94
2023-05-10T00:26:49.384Z,54.94
2023-05-10T00:26:59.441Z,54.94
2023-05-10T00:27:09.582Z,54.97
2023-05-10T00:27:19.718Z,54.94
2023-05-10T00:27:29.866Z,54.94
2023-05-10T00:27:40.048Z,54.94
2023-05-10T00:27:50.032Z,54.94
2023-05-10T00:28:00.169Z,55.05
2023-05-10T00:28:10.330Z,55.07
2023-05-10T00:28:20.472Z,55.05
2023-05-10T00:28:30.641Z,54.94
2023-05-10T00:28:40.659Z,54.97
2023-05-10T00:28:50.685Z,54.94
2023-05-10T00:29:00.666Z,54.97
2023-05-10T00:29:10.786Z,54.97
2023-05-10T00:29:20.789Z,54.97
2023-05-10T00:29:30.862Z,54.94
2023-05-10T00:29:40.889Z,54.97
2023-05-10T00:29:51.022Z,54.97
2023-05-10T00:30:01.077Z,55.07
2023-05-10T00:30:11.128Z,55.07
2023-05-10T00:30:21.157Z,55.07
2023-05-10T00:30:31.175Z,55.07
2023-05-10T00:30:41.232Z,54.97
2023-05-10T00:30:51.271Z,55.07
2023-05-10T00:31:01.307Z,55.07
2023-05-10T00:31:11.384Z,55.07
2023-05-10T00:31:21.447Z,55.07
2023-05-10T00:31:31.586Z,55.18
2023-05-10T00:31:41.645Z,55.18
2023-05-10T00:31:51.672Z,55.18
2023-05-10T00:32:01.761Z,55.18
2023-05-10T00:32:11.903Z,55.18
2023-05-10T00:32:21.982Z,55.18
2023-05-10T00:32:31.959Z,55.18
2023-05-10T00:32:42.009Z,55.18
2023-05-10T00:32:52.103Z,55.07
2023-05-10T00:33:02.223Z,55.07
2023-05-10T00:33:12.316Z,55.18
2023-05-10T00:33:22.355Z,55.18
2023-05-10T00:33:32.399Z,55.18
2023-05-10T00:33:42.460Z,55.18
2023-05-10T00:33:52.509Z,55.18
2023-05-10T00:34:02.602Z,55.18
2023-05-10T00:34:12.640Z,55.07
2023-05-10T00:34:22.675Z,55.07
2023-05-10T00:34:32.728Z,55.07
2023-05-10T00:34:42.785Z,55.07
2023-05-10T00:34:52.812Z,55.18
2023-05-10T00:35:02.889Z,55.18
2023-05-10T00:35:12.946Z,55.18
2023-05-10T00:35:23.009Z,55.07
2023-05-10T00:35:33.093Z,55.07
2023-05-10T00:35:43.164Z,55.07
2023-05-10T00:35:53.265Z,55.07
2023-05-10T00:36:03.286Z,55.07
2023-05-10T00:36:13.435Z,55.07
2023-05-10T00:36:23.501Z,55.18
2023-05-10T00:36:33.548Z,55.18
2023-05-10T00:36:43.606Z,55.18
2023-05-10T00:36:53.725Z,55.07
2023-05-10T00:37:03.790Z,55.07
2023-05-10T00:37:13.843Z,55.07
2023-05-10T00:37:23.921Z,55.07
2023-05-10T00:37:33.929Z,55.07
2023-05-10T00:37:44.000Z,55.07
2023-05-10T00:37:54.058Z,55.07
2023-05-10T00:38:04.103Z,55.07
2023-05-10T00:38:14.153Z,55.07
2023-05-10T00:38:24.196Z,55.07
2023-05-10T00:38:34.243Z,55.07
2023-05-10T00:38:44.287Z,55.07
2023-05-10T00:38:54.391Z,55.07
2023-05-10T00:39:04.469Z,55.07
2023-05-10T00:39:14.486Z,55.07
2023-05-10T00:39:24.528Z,55.07
2023-05-10T00:39:34.581Z,55.07
2023-05-10T00:39:44.651Z,55.07
2023-05-10T00:39:54.735Z,55.07
2023-05-10T00:40:04.784Z,55.07
2023-05-10T00:40:15.137Z,55.07
2023-05-10T00:40:24.858Z,55.07
2023-05-10T00:40:34.891Z,55.07
2023-05-10T00:40:44.990Z,55.07
2023-05-10T00:40:55.038Z,55.07
2023-05-10T00:41:05.082Z,55.07
2023-05-10T00:41:15.129Z,55.07
2023-05-10T00:41:25.171Z,55.07
2023-05-10T00:41:35.219Z,55.07
2023-05-10T00:41:45.260Z,55.07
2023-05-10T00:41:55.299Z,55.07
2023-05-10T00:42:05.342Z,55.07
2023-05-10T00:42:15.401Z,55.07
2023-05-10T00:42:25.432Z,55.07
2023-05-10T00:42:35.460Z,55.07
2023-05-10T00:42:45.497Z,55.07
2023-05-10T00:42:55.539Z,55.18
2023-05-10T00:43:05.596Z,55.07
2023-05-10T00:43:15.653Z,55.07
2023-05-10T00:43:25.678Z,55.18
2023-05-10T00:43:35.798Z,55.18
2023-05-10T00:43:45.861Z,55.18
2023-05-10T00:43:55.894Z,55.18
2023-05-10T00:44:05.932Z,55.18
2023-05-10T00:44:15.955Z,55.07
2023-05-10T00:44:26.038Z,55.07
2023-05-10T00:44:36.107Z,55.07
2023-05-10T00:44:46.140Z,55.07
2023-05-10T00:44:56.199Z,55.07
2023-05-10T00:45:06.235Z,55.07
2023-05-10T00:45:16.292Z,55.07
2023-05-10T00:45:26.356Z,55.07
2023-05-10T00:45:36.428Z,54.97
2023-05-10T00:45:46.575Z,54.97
2023-05-10T00:45:56.605Z,54.87
2023-05-10T00:46:06.696Z,54.87
2023-05-10T00:46:16.781Z,54.77
2023-05-10T00:46:26.846Z,54.77
2023-05-10T00:46:37.026Z,54.87
2023-05-10T00:46:47.005Z,54.87
2023-05-10T00:46:57.039Z,54.87
2023-05-10T00:47:07.113Z,54.87
2023-05-10T00:47:17.136Z,54.87
2023-05-10T00:47:27.301Z,54.97
2023-05-10T00:47:37.396Z,54.97
2023-05-10T00:47:47.537Z,55.07
2023-05-10T00:47:57.606Z,55.07
2023-05-10T00:48:07.628Z,55.18
2023-05-10T00:48:17.629Z,55.18
2023-05-10T00:48:27.656Z,55.18
2023-05-10T00:48:37.713Z,55.18
2023-05-10T00:48:47.775Z,55.18
2023-05-10T00:48:57.830Z,55.18
2023-05-10T00:49:07.962Z,55.18
2023-05-10T00:49:18.011Z,55.18
2023-05-10T00:49:28.036Z,55.18
2023-05-10T00:49:38.092Z,55.18
2023-05-10T00:49:48.155Z,55.18
2023-05-10T00:49:58.188Z,55.18
2023-05-10T00:50:08.244Z,55.18
2023-05-10T00:50:18.468Z,55.18
2023-05-10T00:50:28.299Z,55.20
2023-05-10T00:50:38.422Z,55.18
2023-05-10T00:50:48.484Z,55.18
2023-05-10T00:50:58.496Z,55.18
2023-05-10T00:51:08.533Z,55.27
2023-05-10T00:51:18.649Z,55.27
2023-05-10T00:51:28.705Z,55.27
2023-05-10T00:51:38.771Z,55.27
2023-05-10T00:51:48.778Z,55.40
2023-05-10T00:51:58.815Z,55.38
2023-05-10T00:52:08.863Z,55.38
2023-05-10T00:52:18.896Z,55.38
2023-05-10T00:52:28.968Z,55.40
2023-05-10T00:52:39.006Z,55.38
2023-05-10T00:52:49.088Z,55.38
2023-05-10T00:52:59.144Z,55.38
2023-05-10T00:53:09.188Z,55.40
2023-05-10T00:53:19.238Z,55.38
2023-05-10T00:53:29.329Z,55.40
2023-05-10T00:53:39.426Z,55.38
2023-05-10T00:53:49.458Z,55.38
2023-05-10T00:53:59.504Z,55.40
2023-05-10T00:54:09.564Z,55.38
2023-05-10T00:54:19.612Z,55.38
2023-05-10T00:54:29.713Z,55.40
2023-05-10T00:54:39.744Z,55.38
2023-05-10T00:54:49.779Z,55.38
2023-05-10T00:54:59.866Z,55.38
2023-05-10T00:55:09.893Z,55.38
2023-05-10T00:55:19.963Z,55.51
2023-05-10T00:55:30.030Z,55.48
2023-05-10T00:55:40.083Z,55.48
2023-05-10T00:55:50.162Z,55.51
2023-05-10T00:56:00.200Z,55.48
2023-05-10T00:56:10.304Z,55.51
2023-05-10T00:56:20.334Z,55.51
2023-05-10T00:56:30.414Z,55.51
2023-05-10T00:56:40.458Z,55.51
2023-05-10T00:56:50.510Z,55.48
2023-05-10T00:57:00.592Z,55.48
2023-05-10T00:57:10.608Z,55.51
2023-05-10T00:57:20.653Z,55.48
2023-05-10T00:57:30.683Z,55.51
2023-05-10T00:57:40.716Z,55.51
2023-05-10T00:57:50.745Z,55.51
2023-05-10T00:58:00.768Z,55.51
2023-05-10T00:58:10.823Z,55.51
2023-05-10T00:58:20.900Z,55.51
2023-05-10T00:58:30.981Z,55.51
2023-05-10T00:58:41.027Z,55.51
2023-05-10T00:58:51.106Z,55.51
2023-05-10T00:59:01.194Z,55.48
2023-05-10T00:59:11.228Z,55.51
2023-05-10T00:59:21.288Z,55.60
2023-05-10T00:59:31.351Z,55.51
2023-05-10T00:59:41.408Z,55.51
2023-05-10T00:59:51.455Z,55.48
2023-05-10T01:00:01.518Z,55.51
2023-05-10T01:00:11.585Z,55.58
2023-05-10T01:00:21.680Z,55.51
2023-05-10T01:00:31.735Z,55.51
2023-05-10T01:00:41.770Z,55.51
2023-05-10T01:00:51.812Z,55.51
2023-05-10T01:01:01.885Z,55.51
2023-05-10T01:01:11.960Z,55.51
2023-05-10T01:01:22.102Z,55.51
2023-05-10T01:01:32.206Z,55.51
2023-05-10T01:01:42.345Z,55.51
2023-05-10T01:01:52.298Z,55.51
2023-05-10T01:02:02.335Z,55.51
2023-05-10T01:02:12.396Z,55.40
2023-05-10T01:02:22.717Z,55.51
2023-05-10T01:02:32.711Z,55.51
2023-05-10T01:02:42.915Z,55.51
2023-05-10T01:02:52.994Z,55.51
2023-05-10T01:03:02.960Z,55.51
2023-05-10T01:03:12.964Z,55.51
2023-05-10T01:03:23.201Z,55.51
2023-05-10T01:03:33.093Z,55.60
2023-05-10T01:03:43.151Z,55.51
2023-05-10T01:03:53.190Z,55.60
2023-05-10T01:04:03.305Z,55.60
2023-05-10T01:04:13.370Z,55.51
2023-05-10T01:04:23.402Z,55.51
2023-05-10T01:04:33.558Z,55.51
2023-05-10T01:04:43.582Z,55.51
2023-05-10T01:04:53.632Z,55.51
2023-05-10T01:05:03.765Z,55.51
2023-05-10T01:05:13.823Z,55.51
2023-05-10T01:06:01.158Z,55.51
2023-05-10T01:06:11.176Z,55.51
2023-05-10T01:06:21.228Z,55.40
2023-05-10T01:06:31.303Z,55.40
2023-05-10T01:06:41.368Z,55.40
2023-05-10T01:06:51.437Z,55.40
2023-05-10T01:07:01.522Z,55.40
2023-05-10T01:07:11.551Z,55.40
2023-05-10T01:07:21.636Z,55.51
2023-05-10T01:07:31.736Z,55.51
2023-05-10T01:07:41.775Z,55.51
2023-05-10T01:07:51.840Z,55.51
2023-05-10T01:08:02.011Z,55.51
2023-05-10T01:08:12.095Z,55.51
2023-05-10T01:08:22.150Z,55.51
2023-05-10T01:08:32.216Z,55.60
2023-05-10T01:08:42.274Z,55.60
2023-05-10T01:08:52.422Z,55.51
2023-05-10T01:09:02.506Z,55.60
2023-05-10T01:09:12.690Z,55.60
2023-05-10T01:09:22.782Z,55.60
2023-05-10T01:09:32.929Z,55.60
2023-05-10T01:09:43.051Z,55.71
2023-05-10T01:09:53.102Z,55.71
2023-05-10T01:10:03.199Z,55.71
2023-05-10T01:10:13.384Z,55.71
2023-05-10T01:10:23.301Z,55.71
2023-05-10T01:10:33.373Z,55.71
2023-05-10T01:10:43.408Z,55.71
2023-05-10T01:10:53.478Z,55.71
2023-05-10T01:11:03.563Z,55.71
2023-05-10T01:11:13.644Z,55.71
2023-05-10T01:11:23.747Z,55.71
2023-05-10T01:11:33.823Z,55.71
2023-05-10T01:11:43.958Z,55.71
2023-05-10T01:11:54.041Z,55.71
2023-05-10T01:12:04.198Z,55.71
2023-05-10T01:12:14.168Z,55.71
2023-05-10T01:12:24.306Z,55.71
2023-05-10T01:12:34.394Z,55.71
2023-05-10T01:12:44.482Z,55.71
2023-05-10T01:12:54.558Z,55.71
2023-05-10T01:13:04.654Z,55.71
2023-05-10T01:13:14.722Z,55.71
2023-05-10T01:13:24.893Z,55.71
2023-05-10T01:13:34.837Z,55.71
2023-05-10T01:13:44.901Z,55.71
2023-05-10T01:13:55.087Z,55.71
2023-05-10T01:14:04.992Z,55.71
2023-05-10T01:14:15.050Z,55.71
2023-05-10T01:14:25.179Z,55.71
2023-05-10T01:14:35.280Z,55.71
2023-05-10T01:14:45.356Z,55.71
2023-05-10T01:14:55.488Z,55.60
2023-05-10T01:15:05.645Z,55.71
2023-05-10T01:15:15.704Z,55.71
2023-05-10T01:15:25.794Z,55.71
2023-05-10T01:15:35.911Z,55.71
2023-05-10T01:15:45.980Z,55.71
2023-05-10T01:15:56.077Z,55.71
2023-05-10T01:16:06.186Z,55.81
2023-05-10T01:16:16.226Z,55.81
2023-05-10T01:16:26.484Z,55.81
2023-05-10T01:16:36.470Z,55.81
2023-05-10T01:16:46.544Z,55.81
2023-05-10T01:16:56.629Z,55.91
2023-05-10T01:17:06.659Z,55.91
2023-05-10T01:17:16.740Z,55.91
2023-05-10T01:17:26.828Z,55.91
2023-05-10T01:17:37.052Z,55.91
2023-05-10T01:17:46.960Z,56.01
2023-05-10T01:17:56.960Z,56.01
2023-05-10T01:18:07.057Z,56.01
2023-05-10T01:18:17.152Z,56.01
2023-05-10T01:18:27.221Z,56.01
2023-05-10T01:18:37.303Z,56.01
2023-05-10T01:18:47.391Z,56.01
2023-05-10T01:18:57.448Z,56.01
2023-05-10T01:19:07.613Z,56.01
2023-05-10T01:19:17.657Z,55.91
2023-05-10T01:19:27.803Z,55.91
2023-05-10T01:19:37.858Z,55.91
2023-05-10T01:19:48.038Z,55.91
2023-05-10T01:19:57.979Z,55.91
2023-05-10T01:20:08.105Z,55.91
2023-05-10T01:20:18.500Z,55.91
2023-05-10T01:20:28.324Z,55.91
2023-05-10T01:20:38.301Z,56.01
2023-05-10T01:20:48.424Z,56.04
2023-05-10T01:20:58.460Z,56.01
2023-05-10T01:21:08.543Z,56.04
2023-05-10T01:21:18.604Z,56.04
2023-05-10T01:21:28.708Z,56.01
2023-05-10T01:21:38.762Z,56.04
2023-05-10T01:21:48.874Z,56.01
2023-05-10T01:21:58.964Z,56.04
2023-05-10T01:22:09.059Z,56.01
2023-05-10T01:22:19.132Z,56.04
2023-05-10T01:22:29.224Z,56.01
2023-05-10T01:22:39.309Z,56.04
2023-05-10T01:22:49.426Z,56.04
2023-05-10T01:22:59.503Z,56.12
2023-05-10T01:23:09.609Z,56.14
2023-05-10T01:23:19.671Z,56.12
2023-05-10T01:23:29.736Z,56.12
2023-05-10T01:23:39.810Z,56.14
2023-05-10T01:23:49.850Z,56.21
2023-05-10T01:23:59.921Z,56.24
2023-05-10T01:24:09.989Z,56.21
2023-05-10T01:24:20.068Z,56.24
2023-05-10T01:24:30.158Z,56.21
2023-05-10T01:24:40.174Z,56.24
2023-05-10T01:24:50.269Z,56.24
2023-05-10T01:25:00.343Z,56.24
2023-05-10T01:25:10.456Z,56.24
2023-05-10T01:25:20.486Z,56.24
2023-05-10T01:25:30.539Z,56.24
2023-05-10T01:25:40.593Z,56.24
2023-05-10T01:25:50.650Z,56.24
2023-05-10T01:26:00.716Z,56.24
2023-05-10T01:26:10.866Z,56.24
2023-05-10T01:26:20.900Z,56.24
2023-05-10T01:26:30.984Z,56.24
2023-05-10T01:26:41.045Z,56.24
2023-05-10T01:26:51.099Z,56.14
2023-05-10T01:27:01.162Z,56.14
2023-05-10T01:27:11.273Z,56.04
2023-05-10T01:27:21.316Z,55.94
2023-05-10T01:27:31.412Z,55.94
2023-05-10T01:27:41.410Z,55.94
2023-05-10T01:27:51.498Z,55.94
2023-05-10T01:28:01.567Z,55.94
2023-05-10T01:28:11.733Z,55.94
2023-05-10T01:28:21.799Z,55.94
2023-05-10T01:28:31.873Z,56.04
2023-05-10T01:28:41.964Z,56.04
2023-05-10T01:28:52.115Z,56.04
2023-05-10T01:29:02.149Z,56.04
2023-05-10T01:29:12.297Z,56.14
2023-05-10T01:29:22.390Z,56.14
2023-05-10T01:29:32.495Z,56.14
2023-05-10T01:29:42.642Z,56.14
2023-05-10T01:30:01.593Z,56.24
2023-05-10T01:30:16.162Z,56.24
2023-05-10T01:30:24.210Z,56.34
2023-05-10T01:30:33.903Z,56.34
2023-05-10T01:30:43.973Z,56.34
2023-05-10T01:30:54.068Z,56.34
2023-05-10T01:31:04.117Z,56.34
2023-05-10T01:31:14.240Z,56.34
2023-05-10T01:31:24.333Z,56.45
2023-05-10T01:31:34.474Z,56.45
2023-05-10T01:31:44.593Z,56.45
2023-05-10T01:31:54.640Z,56.45
2023-05-10T01:32:04.708Z,56.45
2023-05-10T01:32:14.797Z,56.45
2023-05-10T01:32:24.891Z,56.45
2023-05-10T01:32:35.079Z,56.45
2023-05-10T01:32:45.193Z,56.45
2023-05-10T01:32:55.339Z,56.45
2023-05-10T01:33:05.432Z,56.45
2023-05-10T01:33:15.462Z,56.45
2023-05-10T01:33:25.548Z,56.45
2023-05-10T01:33:35.607Z,56.45
2023-05-10T01:33:45.645Z,56.45
2023-05-10T01:33:55.738Z,56.45
2023-05-10T01:34:05.815Z,56.45
2023-05-10T01:34:15.998Z,56.45
2023-05-10T01:34:26.016Z,56.45
2023-05-10T01:34:36.156Z,56.45
2023-05-10T01:34:46.261Z,56.45
2023-05-10T01:34:56.347Z,56.45
2023-05-10T01:35:06.453Z,56.45
2023-05-10T01:35:16.494Z,56.55
2023-05-10T01:35:26.566Z,56.55
2023-05-10T01:35:36.620Z,56.55
2023-05-10T01:35:46.718Z,56.55
2023-05-10T01:35:56.836Z,56.55
2023-05-10T01:36:06.934Z,56.55
2023-05-10T01:36:17.016Z,56.55
2023-05-10T01:36:27.228Z,56.55
2023-05-10T01:36:37.167Z,56.55
2023-05-10T01:36:47.209Z,56.55
2023-05-10T01:36:57.304Z,56.55
2023-05-10T01:37:07.378Z,56.55
2023-05-10T01:37:17.456Z,56.65
2023-05-10T01:37:27.536Z,56.65
2023-05-10T01:37:37.636Z,56.55
2023-05-10T01:37:47.708Z,56.45
2023-05-10T01:37:57.738Z,56.45
2023-05-10T01:38:07.815Z,56.45
2023-05-10T01:38:17.906Z,56.45
2023-05-10T01:38:27.982Z,56.45
2023-05-10T01:38:38.044Z,56.45
2023-05-10T01:38:48.231Z,56.55
2023-05-10T01:38:58.130Z,56.55
2023-05-10T01:39:08.213Z,56.55
2023-05-10T01:39:18.285Z,56.55
2023-05-10T01:39:28.395Z,56.55
2023-05-10T01:39:38.434Z,56.65
2023-05-10T01:39:48.497Z,56.65
2023-05-10T01:39:58.566Z,56.65
2023-05-10T01:40:08.627Z,56.75
2023-05-10T01:40:18.722Z,56.75
2023-05-10T01:40:28.781Z,56.75
2023-05-10T01:40:38.835Z,56.75
2023-05-10T01:40:49.005Z,56.75
2023-05-10T01:40:58.973Z,56.85
2023-05-10T01:41:09.036Z,56.85
2023-05-10T01:41:19.125Z,56.85
2023-05-10T01:41:29.188Z,56.95
2023-05-10T01:41:39.262Z,56.95
2023-05-10T01:41:49.382Z,56.95
2023-05-10T01:41:59.406Z,56.95
2023-05-10T01:42:09.496Z,56.95
2023-05-10T01:42:19.594Z,56.95
2023-05-10T01:42:29.672Z,56.95
2023-05-10T01:42:39.753Z,56.98
2023-05-10T01:42:49.827Z,56.95
2023-05-10T01:42:59.864Z,56.95
2023-05-10T01:43:09.972Z,57.06
2023-05-10T01:43:20.100Z,57.06
2023-05-10T01:43:30.181Z,57.06
2023-05-10T01:43:40.227Z,57.06
2023-05-10T01:43:50.356Z,57.06
2023-05-10T01:44:00.332Z,57.06
2023-05-10T01:44:10.493Z,57.06
2023-05-10T01:44:20.484Z,57.16
2023-05-10T01:44:30.566Z,57.16
2023-05-10T01:44:40.612Z,57.16
2023-05-10T01:44:50.671Z,57.06
2023-05-10T01:45:00.888Z,57.06
2023-05-10T01:45:10.742Z,57.08
2023-05-10T01:45:20.798Z,57.06
2023-05-10T01:45:30.862Z,57.08
2023-05-10T01:45:41.064Z,57.08
2023-05-10T01:45:51.237Z,57.18
2023-05-10T01:46:01.291Z,57.16
2023-05-10T01:46:11.392Z,57.18
2023-05-10T01:46:21.394Z,57.18
2023-05-10T01:46:31.487Z,57.18
2023-05-10T01:46:41.560Z,57.18
2023-05-10T01:46:51.774Z,57.18
2023-05-10T01:47:01.961Z,57.18
2023-05-10T01:47:11.912Z,57.18
2023-05-10T01:47:21.944Z,57.18
2023-05-10T01:47:32.136Z,57.18
2023-05-10T01:47:42.229Z,57.18
2023-05-10T01:47:52.395Z,57.18
2023-05-10T01:48:02.484Z,57.29
2023-05-10T01:48:12.574Z,57.18
2023-05-10T01:48:22.635Z,57.29
2023-05-10T01:48:32.700Z,57.18
2023-05-10T01:48:42.772Z,57.29
2023-05-10T01:48:52.823Z,57.18
2023-05-10T01:49:02.928Z,57.18
2023-05-10T01:49:12.966Z,57.29
2023-05-10T01:49:23.098Z,57.29
2023-05-10T01:49:33.132Z,57.29
2023-05-10T01:49:43.173Z,57.29
2023-05-10T01:49:53.233Z,57.29
2023-05-10T01:50:03.312Z,57.29
2023-05-10T01:50:13.494Z,57.29
2023-05-10T01:50:23.600Z,57.29
2023-05-10T01:50:33.655Z,57.29
2023-05-10T01:50:43.748Z,57.29
2023-05-10T01:50:53.834Z,57.29
2023-05-10T01:51:03.992Z,57.29
2023-05-10T01:51:13.925Z,57.29
2023-05-10T01:51:24.011Z,57.39
2023-05-10T01:51:34.043Z,57.29
2023-05-10T01:51:44.092Z,57.29
2023-05-10T01:51:54.147Z,57.29
2023-05-10T01:52:04.210Z,57.18
2023-05-10T01:52:14.276Z,57.18
2023-05-10T01:52:24.348Z,57.18
2023-05-10T01:52:34.399Z,57.18
2023-05-10T01:52:44.489Z,57.18
2023-05-10T01:52:54.634Z,57.29
2023-05-10T01:53:04.727Z,57.18
2023-05-10T01:53:14.843Z,57.08
2023-05-10T01:53:24.927Z,57.08
2023-05-10T01:53:35.024Z,57.08
2023-05-10T01:53:45.108Z,57.08
2023-05-10T01:53:55.175Z,57.08
2023-05-10T01:54:05.217Z,57.18
2023-05-10T01:54:15.314Z,57.18
2023-05-10T01:54:25.356Z,57.18
2023-05-10T01:54:35.437Z,57.18
2023-05-10T01:54:45.643Z,57.18
2023-05-10T01:54:55.575Z,57.18
2023-05-10T01:55:05.639Z,57.18
2023-05-10T01:55:15.720Z,57.18
2023-05-10T01:55:25.796Z,57.29
2023-05-10T01:55:35.952Z,57.29
2023-05-10T01:55:46.028Z,57.29
2023-05-10T01:55:56.141Z,57.39
2023-05-10T01:56:06.229Z,57.39
2023-05-10T01:56:16.307Z,57.39
2023-05-10T01:56:26.403Z,57.39
2023-05-10T01:56:36.514Z,57.39
2023-05-10T01:56:46.564Z,57.39
2023-05-10T01:56:56.652Z,57.29
2023-05-10T01:57:06.725Z,57.29
2023-05-10T01:57:16.786Z,57.29
2023-05-10T01:57:26.865Z,57.29
2023-05-10T01:57:36.923Z,57.39
2023-05-10T01:57:47.047Z,57.39
2023-05-10T01:57:57.167Z,57.39
2023-05-10T01:58:07.305Z,57.39
2023-05-10T01:58:17.359Z,57.39
2023-05-10T01:58:27.422Z,57.39
2023-05-10T01:58:37.512Z,57.49
2023-05-10T01:58:47.554Z,57.49
2023-05-10T01:58:57.616Z,57.49
2023-05-10T01:59:07.688Z,57.49
2023-05-10T01:59:17.762Z,57.49
2023-05-10T01:59:27.913Z,57.49
2023-05-10T01:59:38.020Z,57.49
2023-05-10T01:59:48.086Z,57.49
2023-05-10T01:59:58.156Z,57.49
2023-05-10T02:00:08.214Z,57.49
2023-05-10T02:00:18.484Z,57.49
2023-05-10T02:00:28.376Z,57.49
2023-05-10T02:00:38.483Z,57.49
2023-05-10T02:00:48.581Z,57.49
2023-05-10T02:00:58.781Z,57.49
2023-05-10T02:01:08.693Z,57.49
2023-05-10T02:01:18.774Z,57.49
2023-05-10T02:01:28.856Z,57.49
2023-05-10T02:01:38.948Z,57.49
2023-05-10T02:01:49.020Z,57.49
2023-05-10T02:01:59.073Z,57.49
2023-05-10T02:02:09.128Z,57.49
2023-05-10T02:02:19.192Z,57.49
2023-05-10T02:02:29.319Z,57.49
2023-05-10T02:02:39.405Z,57.49
2023-05-10T02:02:49.476Z,57.49
2023-05-10T02:02:59.493Z,57.49
2023-05-10T02:03:09.656Z,57.49
2023-05-10T02:03:19.632Z,57.49
2023-05-10T02:03:29.702Z,57.49
2023-05-10T02:03:39.782Z,57.49
2023-05-10T02:03:49.832Z,57.49
2023-05-10T02:03:59.868Z,57.49
2023-05-10T02:04:10.109Z,57.59
2023-05-10T02:04:20.011Z,57.59
2023-05-10T02:04:30.052Z,57.59
2023-05-10T02:04:40.234Z,57.59
2023-05-10T02:04:50.312Z,57.59
2023-05-10T02:05:00.407Z,57.59
2023-05-10T02:05:10.450Z,57.59
2023-05-10T02:05:20.511Z,57.59
2023-05-10T02:05:30.558Z,57.59
2023-05-10T02:05:40.641Z,57.59
2023-05-10T02:05:50.666Z,57.59
2023-05-10T02:06:00.713Z,57.59
2023-05-10T02:06:10.773Z,57.59
2023-05-10T02:06:20.825Z,57.59
2023-05-10T02:06:30.867Z,57.59
2023-05-10T02:06:40.922Z,57.59
2023-05-10T02:06:50.978Z,57.59
2023-05-10T02:07:01.017Z,57.59
2023-05-10T02:07:11.076Z,57.59
2023-05-10T02:07:21.145Z,57.59
2023-05-10T02:07:31.188Z,57.59
2023-05-10T02:07:41.249Z,57.59
2023-05-10T02:07:51.319Z,57.59
2023-05-10T02:08:01.396Z,57.59
2023-05-10T02:08:11.425Z,57.59
2023-05-10T02:08:21.511Z,57.59
2023-05-10T02:08:31.553Z,57.59
2023-05-10T02:08:41.648Z,57.59
2023-05-10T02:08:51.735Z,57.59
2023-05-10T02:09:01.764Z,57.59
2023-05-10T02:09:11.842Z,57.69
2023-05-10T02:09:21.862Z,57.72
2023-05-10T02:09:31.938Z,57.69
2023-05-10T02:09:41.976Z,57.69
2023-05-10T02:09:52.061Z,57.72
2023-05-10T02:10:02.088Z,57.69
2023-05-10T02:10:12.146Z,57.72
2023-05-10T02:10:22.212Z,57.72
2023-05-10T02:10:32.246Z,57.72